Etusivu
METAR-TAF:

METAR-TAF

Lentoasemat :

Essaouira-Mogadorin lentoasema

Essaouira, Marokko

Leveyspiiri: 31-31N, Pituuspiiri: 009-47W, korkeus merenpinnasta: 15 m

Tämänhetkinen sää

Tämä raportti tehtiin 46 minuuttia sitten, kello 11.00 UTC
Tuuli 18 kn idästä/koillisesta, vaihdellen koillisen ja idän välillä
Lämpötila 35°C
Kosteus 32%
Ilmanpaine 1010 hPa

METAR: GMMI 141100Z AUTO 07018KT 040V100 //// /// 35/16 Q1010 NOSIG

Aika: 12:46 (11:46 UTC)

Sääennuste

Tämä raportti tehtiin 46 minuuttia sitten, kello 11.00 UTC
Ennuste voimassa 14. päivästä klo 12 UTC - 15. päivään klo 18 UTC
Tuuli 18 kn idästä/koillisesta
Näkyvyys: 8000 m

TAF: GMMI 141100Z 1412/1518 06018KT 8000 NSC

Säähavainnot ja -ennusteet yli 4000 lentoasemalta (METAR- ja TAF-raportit).

Käytössä olevat sääasemat on merkitty karttaan keltaisilla ja punaisilla pisteillä.

Aseta hiiri pisteen päälle nähdäksesi sääaseman nimen.

Klikkaa sitten nähdäksesi säähavainnot ja -ennusteet.

Kartan vaihtaminen: klikkaa mustalla rastilla varustettuja vihreitä pisteitä, niin voit zoomata sisään; viivalla varustettua vihreää pistettä, niin voit zoomata ulos tai vihreitä nuolia, niin pääset viereisille kartoille.


METAR-TAF: